createdAt,value
2017-12-14T00:00:25.512Z,19.09
2017-12-14T00:02:51.761Z,19.06
2017-12-14T00:05:18.248Z,19.04
2017-12-14T00:07:44.437Z,19.07
2017-12-14T00:10:10.680Z,19.06
2017-12-14T00:12:36.868Z,19.08
2017-12-14T00:15:03.088Z,19.08
2017-12-14T00:17:29.312Z,19.04
2017-12-14T00:19:55.491Z,19.05
2017-12-14T00:22:25.573Z,19.04
2017-12-14T00:24:51.698Z,19.06
2017-12-14T00:27:17.885Z,19.03
2017-12-14T00:29:44.064Z,19.00
2017-12-14T00:32:10.310Z,19.00
2017-12-14T00:34:36.493Z,18.97
2017-12-14T00:37:03.007Z,18.97
2017-12-14T00:39:29.542Z,18.95
2017-12-14T00:41:55.729Z,18.98
2017-12-14T00:44:21.915Z,18.96
2017-12-14T00:46:48.150Z,18.90
2017-12-14T00:49:14.350Z,18.90
2017-12-14T00:51:40.533Z,18.90
2017-12-14T00:54:06.788Z,18.93
2017-12-14T00:56:32.997Z,18.95
2017-12-14T00:58:59.189Z,18.93
2017-12-14T01:01:25.445Z,18.91
2017-12-14T01:03:51.636Z,18.88
2017-12-14T01:06:17.811Z,18.88
2017-12-14T01:08:44.380Z,18.91
2017-12-14T01:11:10.573Z,18.99
2017-12-14T01:13:38.204Z,19.32
2017-12-14T01:16:04.441Z,19.49
2017-12-14T01:18:30.639Z,19.53
2017-12-14T01:20:56.838Z,19.53
2017-12-14T01:23:23.388Z,19.52
2017-12-14T01:25:49.596Z,19.52
2017-12-14T01:28:15.831Z,19.51
2017-12-14T01:30:42.080Z,19.47
2017-12-14T01:33:08.264Z,19.46
2017-12-14T01:35:34.461Z,19.43
2017-12-14T01:38:00.966Z,19.44
2017-12-14T01:40:27.249Z,19.42
2017-12-14T01:42:53.441Z,19.41
2017-12-14T01:45:19.682Z,19.40
2017-12-14T01:47:46.011Z,19.40
2017-12-14T01:50:12.203Z,19.40
2017-12-14T01:52:38.462Z,19.38
2017-12-14T01:55:04.653Z,19.39
2017-12-14T01:57:30.850Z,19.38
2017-12-14T01:59:57.094Z,19.37
2017-12-14T02:02:23.389Z,19.37
2017-12-14T02:04:49.565Z,19.36
2017-12-14T02:07:15.797Z,19.35
2017-12-14T02:09:41.979Z,19.33
2017-12-14T02:12:08.177Z,19.32
2017-12-14T02:14:34.428Z,19.32
2017-12-14T02:17:00.699Z,19.32
2017-12-14T02:19:27.098Z,19.32
2017-12-14T02:21:53.333Z,19.32
2017-12-14T02:24:19.535Z,19.31
2017-12-14T02:26:45.703Z,19.32
2017-12-14T02:29:12.264Z,19.31
2017-12-14T02:31:38.696Z,19.31
2017-12-14T02:34:04.898Z,19.31
2017-12-14T02:36:31.143Z,19.30
2017-12-14T02:38:57.558Z,19.29
2017-12-14T02:41:24.025Z,19.30
2017-12-14T02:43:50.253Z,19.29
2017-12-14T02:46:16.446Z,19.29
2017-12-14T02:48:42.625Z,19.29
2017-12-14T02:51:08.893Z,19.29
2017-12-14T02:53:35.103Z,19.28
2017-12-14T02:56:01.307Z,19.27
2017-12-14T02:58:28.463Z,19.28
2017-12-14T03:00:54.877Z,19.28
2017-12-14T03:03:21.082Z,19.28
2017-12-14T03:05:47.313Z,19.28
2017-12-14T03:08:13.512Z,19.28
2017-12-14T03:10:39.935Z,19.27
2017-12-14T03:13:06.425Z,19.25
2017-12-14T03:15:32.609Z,19.26
2017-12-14T03:17:58.796Z,19.24
2017-12-14T03:20:25.042Z,19.26
2017-12-14T03:22:51.242Z,19.28
2017-12-14T03:25:17.442Z,19.28
2017-12-14T03:27:43.900Z,19.29
2017-12-14T03:30:10.077Z,19.31
2017-12-14T03:32:36.240Z,19.31
2017-12-14T03:35:02.464Z,19.31
2017-12-14T03:37:28.654Z,19.29
2017-12-14T03:39:54.830Z,19.29
2017-12-14T03:42:21.069Z,19.30
2017-12-14T03:44:47.258Z,19.30
2017-12-14T03:47:13.459Z,19.29
2017-12-14T03:49:39.933Z,19.26
2017-12-14T03:52:06.129Z,19.25
2017-12-14T03:54:32.327Z,19.23
2017-12-14T03:56:58.940Z,19.24
2017-12-14T03:59:25.133Z,19.25
2017-12-14T04:01:51.330Z,19.23
2017-12-14T04:04:17.585Z,19.21
2017-12-14T04:06:43.790Z,19.20
2017-12-14T04:09:09.987Z,19.20
2017-12-14T04:11:36.264Z,19.19
2017-12-14T04:14:02.470Z,19.18
2017-12-14T04:16:28.661Z,19.16
2017-12-14T04:18:54.895Z,19.17
2017-12-14T04:21:21.073Z,19.19
2017-12-14T04:23:47.549Z,19.20
2017-12-14T04:26:13.879Z,19.20
2017-12-14T04:28:40.071Z,19.20
2017-12-14T04:31:06.275Z,19.19
2017-12-14T04:33:32.518Z,19.18
2017-12-14T04:35:58.710Z,19.18
2017-12-14T04:38:24.915Z,19.18
2017-12-14T04:40:51.182Z,19.17
2017-12-14T04:43:17.391Z,19.17
2017-12-14T04:45:43.581Z,19.16
2017-12-14T04:48:09.836Z,19.16
2017-12-14T04:50:36.042Z,19.15
2017-12-14T04:53:02.236Z,19.14
2017-12-14T04:55:28.821Z,19.15
2017-12-14T04:57:55.004Z,19.12
2017-12-14T05:00:21.444Z,19.12
2017-12-14T05:02:47.688Z,19.11
2017-12-14T05:05:13.910Z,19.11
2017-12-14T05:07:40.122Z,19.10
2017-12-14T05:10:06.379Z,19.10
2017-12-14T05:12:32.582Z,19.10
2017-12-14T05:14:58.805Z,19.10
2017-12-14T05:17:25.051Z,19.10
2017-12-14T05:19:51.221Z,19.10
2017-12-14T05:22:17.742Z,19.11
2017-12-14T05:24:43.986Z,19.11
2017-12-14T05:27:10.183Z,19.12
2017-12-14T05:29:36.352Z,19.12
2017-12-14T05:32:02.591Z,19.14
2017-12-14T05:34:28.771Z,19.17
2017-12-14T05:36:54.977Z,19.18
2017-12-14T05:39:21.212Z,19.20
2017-12-14T05:41:47.469Z,19.19
2017-12-14T05:44:13.946Z,19.15
2017-12-14T05:46:40.460Z,19.11
2017-12-14T05:49:07.655Z,19.09
2017-12-14T05:51:33.874Z,19.06
2017-12-14T05:54:00.125Z,19.05
2017-12-14T05:56:26.326Z,19.02
2017-12-14T05:58:52.801Z,19.00
2017-12-14T06:01:19.426Z,18.97
2017-12-14T06:03:45.708Z,18.97
2017-12-14T06:06:11.930Z,18.96
2017-12-14T06:08:38.182Z,18.93
2017-12-14T06:11:05.033Z,18.93
2017-12-14T06:13:31.268Z,18.91
2017-12-14T06:15:57.793Z,18.91
2017-12-14T06:18:24.021Z,18.91
2017-12-14T06:20:51.010Z,18.90
2017-12-14T06:23:17.320Z,18.89
2017-12-14T06:25:43.508Z,18.89
2017-12-14T06:28:09.740Z,18.88
2017-12-14T06:30:35.997Z,18.87
2017-12-14T06:33:02.256Z,18.86
2017-12-14T06:35:35.419Z,18.85
2017-12-14T06:38:01.599Z,18.83
2017-12-14T06:40:27.799Z,18.82
2017-12-14T06:42:54.051Z,18.85
2017-12-14T06:45:20.243Z,18.86
2017-12-14T06:47:46.429Z,18.85
2017-12-14T06:50:12.690Z,18.83
2017-12-14T06:52:38.905Z,18.81
2017-12-14T06:55:05.137Z,18.79
2017-12-14T06:57:31.376Z,18.77
2017-12-14T06:59:57.565Z,18.76
2017-12-14T07:02:23.834Z,18.75
2017-12-14T07:04:50.072Z,18.80
2017-12-14T07:07:16.404Z,18.86
2017-12-14T07:09:42.618Z,18.89
2017-12-14T07:12:08.882Z,18.87
2017-12-14T07:14:35.089Z,18.91
2017-12-14T07:17:01.285Z,18.91
2017-12-14T07:19:27.588Z,18.91
2017-12-14T07:21:53.953Z,18.92
2017-12-14T07:24:20.328Z,18.94
2017-12-14T07:26:46.571Z,18.97
2017-12-14T07:29:12.808Z,19.14
2017-12-14T07:31:39.091Z,18.65
2017-12-14T07:34:05.377Z,18.32
2017-12-14T07:36:31.612Z,18.16
2017-12-14T07:41:29.745Z,18.07
2017-12-14T07:44:08.275Z,18.05
2017-12-14T07:46:34.598Z,18.08
2017-12-14T07:49:13.244Z,18.10
2017-12-14T07:51:39.538Z,18.07
2017-12-14T07:54:05.756Z,18.07
2017-12-14T07:56:31.964Z,18.08
2017-12-14T07:58:58.210Z,18.05
2017-12-14T08:01:24.418Z,18.07
2017-12-14T08:03:50.632Z,18.07
2017-12-14T08:06:16.976Z,18.05
2017-12-14T08:08:43.449Z,18.07
2017-12-14T08:11:09.660Z,18.05
2017-12-14T08:13:35.879Z,18.03
2017-12-14T08:16:02.317Z,17.96
2017-12-14T08:18:28.579Z,17.97
2017-12-14T08:20:54.773Z,17.98
2017-12-14T08:23:20.959Z,18.00
2017-12-14T08:25:47.452Z,18.01
2017-12-14T08:28:13.742Z,18.00
2017-12-14T08:30:39.978Z,17.99
2017-12-14T08:33:06.253Z,17.99
2017-12-14T08:35:32.466Z,18.01
2017-12-14T08:37:58.693Z,18.01
2017-12-14T08:40:24.957Z,18.00
2017-12-14T08:42:51.166Z,18.04
2017-12-14T08:45:17.351Z,18.06
2017-12-14T08:47:43.610Z,18.05
2017-12-14T08:50:09.820Z,18.01
2017-12-14T08:52:36.265Z,18.00
2017-12-14T08:55:02.910Z,18.01
2017-12-14T08:57:30.116Z,17.98
2017-12-14T08:59:56.319Z,17.97
2017-12-14T09:02:22.568Z,18.01
2017-12-14T09:04:48.779Z,18.02
2017-12-14T09:07:15.037Z,18.02
2017-12-14T09:09:41.260Z,18.03
2017-12-14T09:12:07.471Z,18.03
2017-12-14T09:14:33.674Z,18.02
2017-12-14T09:16:59.923Z,18.05
2017-12-14T09:19:26.133Z,18.09
2017-12-14T09:21:52.587Z,18.12
2017-12-14T09:24:18.868Z,18.12
2017-12-14T09:26:45.065Z,18.16
2017-12-14T09:29:11.267Z,18.18
2017-12-14T09:31:37.530Z,18.18
2017-12-14T09:34:03.732Z,18.17
2017-12-14T09:36:30.001Z,18.17
2017-12-14T09:38:56.563Z,18.15
2017-12-14T09:41:22.766Z,18.11
2017-12-14T09:43:48.957Z,18.12
2017-12-14T09:46:15.244Z,18.15
2017-12-14T09:48:41.440Z,18.19
2017-12-14T09:51:07.649Z,18.26
2017-12-14T09:53:33.908Z,18.33
2017-12-14T09:56:00.107Z,18.36
2017-12-14T09:58:27.333Z,18.33
2017-12-14T10:00:53.660Z,18.28
2017-12-14T10:03:19.868Z,18.23
2017-12-14T10:05:46.107Z,18.18
2017-12-14T10:08:12.403Z,18.18
2017-12-14T10:10:39.222Z,18.19
2017-12-14T10:13:05.567Z,18.17
2017-12-14T10:15:31.846Z,18.20
2017-12-14T10:17:58.126Z,18.22
2017-12-14T10:20:24.325Z,18.24
2017-12-14T10:22:50.820Z,18.25
2017-12-14T10:25:17.007Z,18.26
2017-12-14T10:27:43.207Z,18.27
2017-12-14T10:30:09.700Z,18.28
2017-12-14T10:32:35.923Z,18.24
2017-12-14T10:35:02.130Z,18.24
2017-12-14T10:37:28.411Z,18.25
2017-12-14T10:39:54.630Z,18.23
2017-12-14T10:42:20.884Z,18.21
2017-12-14T10:44:47.136Z,18.21
2017-12-14T10:47:13.345Z,18.19
2017-12-14T10:49:39.567Z,18.20
2017-12-14T10:52:05.831Z,18.17
2017-12-14T10:54:32.089Z,18.14
2017-12-14T10:56:58.350Z,18.10
2017-12-14T10:59:24.589Z,18.08
2017-12-14T11:01:51.064Z,18.08
2017-12-14T11:04:17.294Z,18.07
2017-12-14T11:06:43.501Z,18.06
2017-12-14T11:09:09.840Z,18.05
2017-12-14T11:11:36.047Z,18.00
2017-12-14T11:14:02.284Z,17.97
2017-12-14T11:16:28.799Z,18.02
2017-12-14T11:18:55.036Z,18.03
2017-12-14T11:21:21.233Z,18.04
2017-12-14T11:23:47.584Z,18.06
2017-12-14T11:26:14.032Z,18.13
2017-12-14T11:28:40.239Z,18.21
2017-12-14T11:31:06.498Z,18.28
2017-12-14T11:33:32.751Z,18.30
2017-12-14T11:35:58.965Z,18.38
2017-12-14T11:38:25.258Z,18.48
2017-12-14T11:40:51.745Z,18.51
2017-12-14T11:43:17.946Z,18.53
2017-12-14T11:45:44.386Z,18.56
2017-12-14T11:48:10.602Z,18.54
2017-12-14T11:50:36.807Z,18.54
2017-12-14T11:53:03.071Z,18.56
2017-12-14T11:55:29.621Z,18.51
2017-12-14T11:57:55.818Z,18.46
2017-12-14T12:00:22.553Z,18.44
2017-12-14T12:02:48.793Z,18.37
2017-12-14T12:05:15.004Z,18.28
2017-12-14T12:07:41.793Z,18.23
2017-12-14T12:10:08.049Z,18.19
2017-12-14T12:12:34.245Z,18.17
2017-12-14T12:15:00.513Z,18.23
2017-12-14T12:17:26.711Z,18.32
2017-12-14T12:19:53.146Z,18.37
2017-12-14T12:22:19.497Z,18.39
2017-12-14T12:24:45.690Z,18.40
2017-12-14T12:27:11.891Z,18.43
2017-12-14T12:29:38.557Z,18.41
2017-12-14T12:32:04.750Z,18.43
2017-12-14T12:34:30.978Z,18.45
2017-12-14T12:36:57.258Z,18.42
2017-12-14T12:39:23.498Z,18.45
2017-12-14T12:41:49.705Z,18.46
2017-12-14T12:44:15.966Z,18.52
2017-12-14T12:46:42.206Z,18.57
2017-12-14T12:49:08.453Z,18.59
2017-12-14T12:51:34.985Z,18.59
2017-12-14T12:54:01.189Z,18.56
2017-12-14T12:56:27.641Z,18.55
2017-12-14T12:58:53.879Z,18.53
2017-12-14T13:01:20.158Z,18.46
2017-12-14T13:03:46.374Z,18.43
2017-12-14T13:06:12.567Z,18.41
2017-12-14T13:08:38.829Z,18.38
2017-12-14T13:11:05.057Z,18.36
2017-12-14T13:13:31.282Z,18.37
2017-12-14T13:15:57.542Z,18.35
2017-12-14T13:18:23.759Z,18.33
2017-12-14T13:20:49.994Z,18.33
2017-12-14T13:23:16.304Z,18.30
2017-12-14T13:25:42.505Z,18.27
2017-12-14T13:28:09.054Z,18.30
2017-12-14T13:30:35.327Z,18.29
2017-12-14T13:33:02.063Z,18.28
2017-12-14T13:35:28.392Z,18.27
2017-12-14T13:37:54.648Z,18.27
2017-12-14T13:40:20.854Z,18.24
2017-12-14T13:42:47.061Z,18.23
2017-12-14T13:45:13.316Z,18.22
2017-12-14T13:47:39.512Z,18.20
2017-12-14T13:50:05.708Z,18.18
2017-12-14T13:52:31.961Z,18.17
2017-12-14T13:54:58.186Z,18.19
2017-12-14T13:57:24.435Z,18.20
2017-12-14T13:59:50.702Z,18.23
2017-12-14T14:02:16.911Z,18.23
2017-12-14T14:04:43.133Z,18.25
2017-12-14T14:07:09.427Z,18.29
2017-12-14T14:09:35.929Z,18.27
2017-12-14T14:12:02.239Z,18.28
2017-12-14T14:14:28.510Z,18.29
2017-12-14T14:16:54.716Z,18.28
2017-12-14T14:19:20.936Z,18.28
2017-12-14T14:21:47.189Z,18.26
2017-12-14T14:24:13.632Z,18.29
2017-12-14T14:26:39.825Z,18.28
2017-12-14T14:29:06.142Z,18.27
2017-12-14T14:31:32.352Z,18.25
2017-12-14T14:33:58.536Z,18.26
2017-12-14T14:36:24.800Z,18.30
2017-12-14T14:38:51.085Z,18.34
2017-12-14T14:41:17.305Z,18.36
2017-12-14T14:43:43.568Z,18.33
2017-12-14T14:46:09.767Z,18.30
2017-12-14T14:48:35.970Z,18.26
2017-12-14T14:51:02.254Z,18.25
2017-12-14T14:53:28.428Z,18.24
2017-12-14T14:55:54.616Z,18.24
2017-12-14T14:58:20.862Z,18.23
2017-12-14T15:00:47.074Z,18.22
2017-12-14T15:03:13.285Z,18.18
2017-12-14T15:05:39.562Z,18.20
2017-12-14T15:08:05.761Z,18.19
2017-12-14T15:10:31.979Z,18.17
2017-12-14T15:12:58.278Z,18.15
2017-12-14T15:15:24.685Z,18.15
2017-12-14T15:17:50.870Z,18.15
2017-12-14T15:20:17.128Z,18.14
2017-12-14T15:22:43.338Z,18.15
2017-12-14T15:25:09.539Z,18.15
2017-12-14T15:27:35.801Z,18.13
2017-12-14T15:30:02.087Z,18.13
2017-12-14T15:32:28.291Z,18.17
2017-12-14T15:34:54.576Z,18.16
2017-12-14T15:37:21.010Z,18.15
2017-12-14T15:39:47.465Z,18.14
2017-12-14T15:42:13.712Z,18.16
2017-12-14T15:44:39.885Z,18.19
2017-12-14T15:47:06.083Z,18.19
2017-12-14T15:49:32.346Z,18.18
2017-12-14T15:51:58.551Z,18.19
2017-12-14T15:54:24.738Z,18.19
2017-12-14T15:56:50.984Z,18.19
2017-12-14T15:59:17.222Z,18.21
2017-12-14T16:01:43.420Z,18.20
2017-12-14T16:04:09.682Z,18.17
2017-12-14T16:06:35.880Z,18.16
2017-12-14T16:09:02.089Z,18.17
2017-12-14T16:11:28.570Z,18.16
2017-12-14T16:13:54.784Z,18.16
2017-12-14T16:16:20.986Z,18.18
2017-12-14T16:18:47.236Z,18.17
2017-12-14T16:21:13.412Z,18.16
2017-12-14T16:23:39.595Z,18.14
2017-12-14T16:26:05.845Z,18.16
2017-12-14T16:28:32.034Z,18.18
2017-12-14T16:30:58.329Z,18.14
2017-12-14T16:33:24.560Z,18.16
2017-12-14T16:35:50.973Z,18.06
2017-12-14T16:38:17.219Z,18.13
2017-12-14T16:40:43.464Z,18.11
2017-12-14T16:43:09.658Z,18.09
2017-12-14T16:45:35.863Z,18.08
2017-12-14T16:48:02.426Z,18.09
2017-12-14T16:50:28.715Z,18.07
2017-12-14T16:52:54.924Z,18.08
2017-12-14T16:55:21.181Z,18.08
2017-12-14T16:57:47.386Z,18.09
2017-12-14T17:00:13.575Z,18.08
2017-12-14T17:02:39.834Z,18.07
2017-12-14T17:05:06.024Z,18.10
2017-12-14T17:07:32.226Z,18.10
2017-12-14T17:09:58.456Z,18.08
2017-12-14T17:12:24.644Z,18.08
2017-12-14T17:14:50.839Z,18.10
2017-12-14T17:17:17.082Z,18.11
2017-12-14T17:19:43.559Z,18.10
2017-12-14T17:22:09.820Z,18.10
2017-12-14T17:24:36.072Z,18.11
2017-12-14T17:27:02.247Z,18.08
2017-12-14T17:29:28.664Z,18.08
2017-12-14T17:31:55.059Z,18.10
2017-12-14T17:34:21.260Z,18.10
2017-12-14T17:36:47.469Z,18.11
2017-12-14T17:39:13.728Z,18.12
2017-12-14T17:41:39.932Z,18.12
2017-12-14T17:44:06.132Z,18.15
2017-12-14T17:46:32.393Z,18.13
2017-12-14T17:48:58.581Z,18.12
2017-12-14T17:51:24.778Z,18.13
2017-12-14T17:53:51.029Z,18.13
2017-12-14T17:56:17.216Z,18.14
2017-12-14T17:58:43.529Z,18.18
2017-12-14T18:01:09.750Z,18.18
2017-12-14T18:03:36.194Z,18.21
2017-12-14T18:06:02.428Z,18.18
2017-12-14T18:08:28.648Z,18.17
2017-12-14T18:10:54.906Z,18.13
2017-12-14T18:13:21.077Z,18.13
2017-12-14T18:15:47.278Z,18.15
2017-12-14T18:18:13.494Z,18.17
2017-12-14T18:20:39.699Z,18.19
2017-12-14T18:23:11.626Z,18.18
2017-12-14T18:25:37.899Z,18.14
2017-12-14T18:28:04.104Z,18.16
2017-12-14T18:30:30.583Z,18.14
2017-12-14T18:32:57.070Z,18.13
2017-12-14T18:35:23.284Z,18.15
2017-12-14T18:37:49.716Z,18.16
2017-12-14T18:40:15.984Z,18.17
2017-12-14T18:42:42.232Z,18.15
2017-12-14T18:45:08.422Z,18.14
2017-12-14T18:47:34.645Z,18.12
2017-12-14T18:50:00.820Z,18.13
2017-12-14T18:52:27.017Z,18.13
2017-12-14T18:54:53.251Z,18.14
2017-12-14T18:57:19.523Z,18.16
2017-12-14T18:59:45.874Z,18.23
2017-12-14T19:02:12.133Z,18.28
2017-12-14T19:04:38.576Z,18.27
2017-12-14T19:07:04.761Z,18.30
2017-12-14T19:09:31.026Z,18.24
2017-12-14T19:11:57.245Z,18.25
2017-12-14T19:14:23.515Z,18.31
2017-12-14T19:16:49.783Z,18.35
2017-12-14T19:19:16.206Z,18.37
2017-12-14T19:21:42.683Z,18.34
2017-12-14T19:24:09.009Z,18.33
2017-12-14T19:26:35.204Z,18.32
2017-12-14T19:29:01.393Z,18.31
2017-12-14T19:31:27.631Z,18.32
2017-12-14T19:33:53.879Z,18.31
2017-12-14T19:36:20.262Z,18.33
2017-12-14T19:38:46.502Z,18.34
2017-12-14T19:41:12.700Z,18.36
2017-12-14T19:43:39.419Z,18.31
2017-12-14T19:46:05.668Z,18.27
2017-12-14T19:48:31.864Z,18.26
2017-12-14T19:50:58.077Z,18.24
2017-12-14T19:53:24.668Z,18.23
2017-12-14T19:55:50.877Z,18.23
2017-12-14T19:58:17.117Z,18.23
2017-12-14T20:00:43.366Z,18.21
2017-12-14T20:03:09.561Z,18.21
2017-12-14T20:05:35.768Z,18.24
2017-12-14T20:08:02.013Z,18.31
2017-12-14T20:10:28.210Z,18.37
2017-12-14T20:12:54.407Z,18.39
2017-12-14T20:15:20.674Z,18.39
2017-12-14T20:17:46.865Z,18.41
2017-12-14T20:20:13.074Z,18.42
2017-12-14T20:22:39.322Z,18.43
2017-12-14T20:25:05.760Z,18.50
2017-12-14T20:27:31.935Z,18.47
2017-12-14T20:29:58.253Z,18.42
2017-12-14T20:32:24.460Z,18.41
2017-12-14T20:34:50.737Z,18.42
2017-12-14T20:37:23.066Z,18.41
2017-12-14T20:39:49.363Z,18.42
2017-12-14T20:42:15.620Z,18.42
2017-12-14T20:44:41.887Z,18.41
2017-12-14T20:47:08.078Z,18.42
2017-12-14T20:49:34.547Z,18.41
2017-12-14T20:52:00.832Z,18.39
2017-12-14T20:54:27.085Z,18.40
2017-12-14T20:56:53.436Z,18.42
2017-12-14T20:59:19.673Z,18.40
2017-12-14T21:01:46.106Z,18.42
2017-12-14T21:04:12.312Z,18.39
2017-12-14T21:06:38.561Z,18.46
2017-12-14T21:09:04.770Z,18.54
2017-12-14T21:11:30.961Z,18.59
2017-12-14T21:13:57.218Z,18.52
2017-12-14T21:16:23.415Z,18.48
2017-12-14T21:18:49.619Z,18.50
2017-12-14T21:21:15.854Z,18.52
2017-12-14T21:23:42.045Z,18.54
2017-12-14T21:26:08.248Z,18.58
2017-12-14T21:28:34.512Z,18.57
2017-12-14T21:31:00.721Z,18.59
2017-12-14T21:33:26.900Z,18.60
2017-12-14T21:35:53.156Z,18.53
2017-12-14T21:38:19.363Z,18.46
2017-12-14T21:40:45.549Z,18.47
2017-12-14T21:43:11.811Z,18.53
2017-12-14T21:45:38.008Z,18.58
2017-12-14T21:48:04.436Z,18.57
2017-12-14T21:50:30.713Z,18.63
2017-12-14T21:52:56.961Z,18.58
2017-12-14T21:55:23.230Z,18.53
2017-12-14T21:57:49.469Z,18.49
2017-12-14T22:00:15.764Z,18.53
2017-12-14T22:02:41.958Z,18.53
2017-12-14T22:05:08.257Z,18.58
2017-12-14T22:07:34.469Z,18.55
2017-12-14T22:10:00.659Z,18.52
2017-12-14T22:12:27.165Z,18.50
2017-12-14T22:14:53.366Z,18.50
2017-12-14T22:17:19.603Z,18.53
2017-12-14T22:19:46.129Z,18.56
2017-12-14T22:22:12.332Z,18.56
2017-12-14T22:24:38.766Z,18.62
2017-12-14T22:27:05.049Z,18.63
2017-12-14T22:29:31.326Z,18.63
2017-12-14T22:31:57.602Z,18.65
2017-12-14T22:34:23.855Z,18.67
2017-12-14T22:36:50.073Z,18.74
2017-12-14T22:39:16.270Z,18.73
2017-12-14T22:41:42.544Z,18.73
2017-12-14T22:44:08.748Z,18.75
2017-12-14T22:46:34.945Z,18.72
2017-12-14T22:49:01.181Z,18.74
2017-12-14T22:51:27.390Z,18.73
2017-12-14T22:53:53.571Z,18.72
2017-12-14T22:56:19.830Z,18.72
2017-12-14T22:58:46.021Z,18.72
2017-12-14T23:01:12.242Z,18.70
2017-12-14T23:03:38.727Z,18.71
2017-12-14T23:06:04.908Z,18.71
2017-12-14T23:08:31.091Z,18.71
2017-12-14T23:10:57.308Z,18.69
2017-12-14T23:13:23.493Z,18.69
2017-12-14T23:15:49.997Z,18.70
2017-12-14T23:18:16.480Z,18.70
2017-12-14T23:20:42.698Z,18.70
2017-12-14T23:23:08.906Z,18.65
2017-12-14T23:25:35.190Z,18.69
2017-12-14T23:28:01.358Z,18.67
2017-12-14T23:30:27.549Z,18.68
2017-12-14T23:32:53.799Z,18.67
2017-12-14T23:35:19.997Z,18.68
2017-12-14T23:37:46.478Z,18.66
2017-12-14T23:40:12.707Z,18.66
2017-12-14T23:42:38.886Z,18.66
2017-12-14T23:45:05.085Z,18.69
2017-12-14T23:47:31.321Z,18.69
2017-12-14T23:49:57.545Z,18.68
2017-12-14T23:52:23.750Z,18.67
2017-12-14T23:54:50.022Z,18.67
2017-12-14T23:57:16.464Z,18.66
2017-12-14T23:59:42.646Z,18.65
